createdAt,value
2022-11-21T00:02:38.021Z,16.13
2022-11-21T00:07:40.667Z,17.10
2022-11-21T00:12:43.828Z,16.25
2022-11-21T00:17:46.390Z,16.10
2022-11-21T00:22:49.900Z,16.83
2022-11-21T00:27:53.767Z,16.77
2022-11-21T00:32:58.541Z,15.57
2022-11-21T00:38:01.097Z,14.65
2022-11-21T00:43:03.650Z,14.52
2022-11-21T00:48:06.636Z,14.30
2022-11-21T00:53:09.207Z,12.98
2022-11-21T00:58:11.793Z,13.38
2022-11-21T01:03:14.397Z,13.57
2022-11-21T01:08:17.035Z,14.32
2022-11-21T01:13:20.136Z,13.27
2022-11-21T01:18:22.681Z,13.77
2022-11-21T01:23:25.247Z,13.40
2022-11-21T01:28:27.783Z,12.85
2022-11-21T01:33:30.654Z,14.33
2022-11-21T01:38:34.124Z,13.00
2022-11-21T01:43:37.389Z,12.97
2022-11-21T01:48:45.804Z,12.83
2022-11-21T01:54:11.949Z,13.30
2022-11-21T01:59:21.807Z,12.90
2022-11-21T02:04:28.860Z,14.30
2022-11-21T02:09:34.595Z,14.80
2022-11-21T02:14:38.778Z,14.30
2022-11-21T02:20:03.663Z,14.50
2022-11-21T02:25:13.087Z,13.53
2022-11-21T02:30:16.484Z,15.03
2022-11-21T02:35:19.475Z,16.37
2022-11-21T02:40:26.471Z,16.83
2022-11-21T02:45:37.724Z,15.70
2022-11-21T02:50:42.117Z,16.13
2022-11-21T02:55:45.492Z,15.90
2022-11-21T03:00:48.280Z,17.65
2022-11-21T03:05:51.076Z,15.82
2022-11-21T03:10:53.654Z,16.73
2022-11-21T03:15:56.379Z,17.03
2022-11-21T03:20:59.192Z,15.97
2022-11-21T03:26:01.775Z,14.07
2022-11-21T03:31:04.318Z,15.03
2022-11-21T03:36:07.212Z,17.80
2022-11-21T03:41:29.907Z,17.97
2022-11-21T03:46:35.800Z,14.70
2022-11-21T03:51:39.114Z,16.77
2022-11-21T03:56:41.657Z,16.33
2022-11-21T04:01:44.300Z,17.17
2022-11-21T04:06:46.928Z,15.20
2022-11-21T04:11:49.435Z,14.27
2022-11-21T04:16:52.037Z,15.00
2022-11-21T04:21:54.662Z,16.20
2022-11-21T04:26:57.226Z,17.40
2022-11-21T04:31:59.764Z,14.77
2022-11-21T04:37:05.264Z,14.60
2022-11-21T04:42:10.156Z,14.53
2022-11-21T04:47:12.701Z,15.33
2022-11-21T04:52:15.380Z,14.77
2022-11-21T04:57:17.895Z,14.93
2022-11-21T05:02:20.654Z,14.60
2022-11-21T05:07:23.417Z,15.20
2022-11-21T05:12:44.793Z,14.33
2022-11-21T05:17:47.871Z,10.63
2022-11-21T05:22:53.667Z,14.07
2022-11-21T05:27:57.712Z,13.70
2022-11-21T05:33:00.318Z,13.10
2022-11-21T05:38:03.983Z,12.20
2022-11-21T05:43:25.848Z,10.30
2022-11-21T05:48:28.320Z,10.05
2022-11-21T05:53:31.006Z,9.67
2022-11-21T05:58:34.317Z,11.93
2022-11-21T06:03:40.166Z,11.13
2022-11-21T06:08:45.761Z,9.97
2022-11-21T06:13:48.362Z,7.77
2022-11-21T06:18:56.807Z,7.37
2022-11-21T06:24:01.148Z,8.57
2022-11-21T06:29:03.683Z,8.73
2022-11-21T06:34:06.523Z,8.43
2022-11-21T06:39:09.079Z,9.10
2022-11-21T06:44:12.255Z,8.23
2022-11-21T06:49:14.799Z,9.73
2022-11-21T06:54:17.559Z,8.83
2022-11-21T06:59:20.047Z,9.73
2022-11-21T07:04:22.772Z,8.90
2022-11-21T07:09:33.276Z,10.37
2022-11-21T07:14:36.596Z,10.13
2022-11-21T07:19:41.010Z,10.40
2022-11-21T07:24:43.928Z,10.30
2022-11-21T07:29:46.466Z,11.07
2022-11-21T07:34:49.730Z,9.30
2022-11-21T07:39:52.436Z,9.40
2022-11-21T07:44:55.003Z,9.50
2022-11-21T07:49:58.266Z,9.03
2022-11-21T07:55:02.739Z,10.27
2022-11-21T08:00:06.351Z,10.77
2022-11-21T08:05:09.163Z,11.17
2022-11-21T08:10:11.853Z,11.70
2022-11-21T08:15:15.738Z,11.87
2022-11-21T08:20:18.250Z,15.03
2022-11-21T08:25:20.830Z,14.07
2022-11-21T08:30:23.675Z,14.30
2022-11-21T08:35:27.494Z,14.17
2022-11-21T08:40:31.831Z,12.90
2022-11-21T08:45:36.397Z,14.07
2022-11-21T08:50:39.247Z,12.93
2022-11-21T08:55:41.755Z,13.40
2022-11-21T09:00:44.386Z,13.60
2022-11-21T09:05:47.559Z,13.10
2022-11-21T09:10:50.426Z,13.33
2022-11-21T09:16:13.396Z,14.20
2022-11-21T09:21:20.450Z,12.80
2022-11-21T09:26:23.010Z,12.55
2022-11-21T09:31:25.561Z,13.05
2022-11-21T09:36:28.970Z,10.93
2022-11-21T09:41:53.866Z,12.77
2022-11-21T09:47:12.888Z,14.48
2022-11-21T09:52:21.425Z,15.27
2022-11-21T09:57:28.468Z,12.63
2022-11-21T10:02:34.589Z,14.00
2022-11-21T10:07:37.641Z,14.75
2022-11-21T10:12:45.890Z,12.97
2022-11-21T10:18:09.866Z,13.10
2022-11-21T10:23:45.657Z,13.63
2022-11-21T10:28:59.466Z,12.43
2022-11-21T10:34:04.157Z,13.60
2022-11-21T10:39:19.194Z,12.90
2022-11-21T10:44:49.593Z,12.57
2022-11-21T10:49:52.199Z,13.60
2022-11-21T10:55:10.194Z,14.03
2022-11-21T11:00:12.752Z,14.53
2022-11-21T11:05:22.841Z,14.70
2022-11-21T11:10:28.060Z,15.10
2022-11-21T11:15:31.044Z,14.57
2022-11-21T11:20:35.362Z,13.80
2022-11-21T11:25:37.879Z,13.38
2022-11-21T11:30:40.942Z,13.50
2022-11-21T11:35:44.020Z,14.53
2022-11-21T11:40:47.706Z,12.30
2022-11-21T11:46:30.651Z,13.73
2022-11-21T11:51:44.865Z,13.67
2022-11-21T11:56:48.678Z,14.37
2022-11-21T12:02:11.625Z,14.00
2022-11-21T12:08:38.794Z,14.73
2022-11-21T12:12:55.401Z,13.37
2022-11-21T12:18:19.611Z,14.07
2022-11-21T12:23:32.215Z,14.17
2022-11-21T12:28:53.071Z,14.27
2022-11-21T12:34:24.303Z,12.63
2022-11-21T12:40:18.267Z,14.82
2022-11-21T12:45:33.754Z,13.75
2022-11-21T12:51:33.983Z,13.60
2022-11-21T12:56:45.658Z,13.40
2022-11-21T13:02:00.295Z,12.13
2022-11-21T13:07:04.420Z,12.63
2022-11-21T13:12:15.035Z,13.90
2022-11-21T13:17:39.463Z,12.73
2022-11-21T13:22:41.921Z,12.57
2022-11-21T13:27:47.383Z,12.33
2022-11-21T13:32:52.216Z,12.50
2022-11-21T13:38:03.146Z,13.87
2022-11-21T13:43:31.228Z,12.17
2022-11-21T13:48:28.702Z,12.03
2022-11-21T13:53:58.850Z,13.63
2022-11-21T13:59:19.516Z,11.67
2022-11-21T14:04:38.754Z,12.67
2022-11-21T14:09:48.331Z,13.37
2022-11-21T14:15:15.246Z,12.47
2022-11-21T14:20:25.332Z,12.57
2022-11-21T14:25:35.290Z,12.83
2022-11-21T14:30:40.795Z,13.00
2022-11-21T14:35:49.123Z,13.07
2022-11-21T14:42:42.979Z,10.60
2022-11-21T14:47:26.668Z,12.60
2022-11-21T14:52:34.108Z,12.97
2022-11-21T14:57:41.844Z,12.73
2022-11-21T15:02:45.347Z,12.20
2022-11-21T15:07:48.770Z,13.30
2022-11-21T15:13:08.577Z,12.73
2022-11-21T15:18:27.949Z,13.43
2022-11-21T15:23:33.747Z,13.53
2022-11-21T15:28:36.363Z,13.57
2022-11-21T15:34:35.345Z,13.33
2022-11-21T15:39:48.357Z,15.17
2022-11-21T15:44:59.918Z,12.90
2022-11-21T15:50:02.619Z,15.02
2022-11-21T15:55:13.888Z,13.70
2022-11-21T16:00:22.124Z,13.73
2022-11-21T16:05:25.793Z,12.63
2022-11-21T16:10:28.692Z,14.00
2022-11-21T16:15:31.310Z,14.37
2022-11-21T16:20:34.113Z,13.33
2022-11-21T16:25:37.202Z,13.67
2022-11-21T16:30:40.260Z,15.23
2022-11-21T16:35:42.905Z,14.40
2022-11-21T16:40:53.813Z,14.70
2022-11-21T16:46:06.143Z,11.90
2022-11-21T16:51:22.629Z,15.33
2022-11-21T16:56:25.398Z,14.53
2022-11-21T17:01:30.855Z,14.53
2022-11-21T17:06:34.755Z,14.67
2022-11-21T17:11:37.619Z,13.17
2022-11-21T17:16:41.699Z,14.60
2022-11-21T17:21:44.509Z,13.17
2022-11-21T17:26:47.126Z,11.43
2022-11-21T17:31:50.831Z,12.50
2022-11-21T17:36:56.142Z,12.00
2022-11-21T17:42:00.037Z,11.33
2022-11-21T17:47:05.908Z,13.03
2022-11-21T17:52:11.396Z,11.60
2022-11-21T17:57:14.084Z,12.33
2022-11-21T18:02:18.376Z,12.57
2022-11-21T18:07:21.223Z,13.60
2022-11-21T18:12:24.113Z,12.30
2022-11-21T18:17:27.164Z,11.43
2022-11-21T18:22:31.960Z,13.05
2022-11-21T18:27:40.439Z,13.07
2022-11-21T18:32:43.404Z,13.00
2022-11-21T18:37:46.985Z,13.00
2022-11-21T18:42:49.808Z,12.63
2022-11-21T18:47:52.977Z,14.07
2022-11-21T18:52:58.840Z,15.30
2022-11-21T18:58:03.135Z,16.57
2022-11-21T19:03:16.716Z,14.97
2022-11-21T19:08:19.976Z,17.03
2022-11-21T19:13:22.560Z,16.20
2022-11-21T19:18:25.587Z,17.37
2022-11-21T19:23:28.804Z,17.03
2022-11-21T19:28:34.786Z,17.80
2022-11-21T19:33:38.026Z,18.33
2022-11-21T19:38:40.672Z,19.17
2022-11-21T19:43:45.542Z,16.60
2022-11-21T19:48:49.803Z,16.90
2022-11-21T19:53:52.342Z,18.87
2022-11-21T19:58:56.543Z,17.17
2022-11-21T20:04:01.024Z,16.60
2022-11-21T20:09:12.753Z,17.10
2022-11-21T20:19:26.899Z,16.27
2022-11-21T20:24:30.060Z,17.43
2022-11-21T20:29:32.795Z,18.07
2022-11-21T20:34:36.160Z,16.03
2022-11-21T20:39:38.858Z,16.37
2022-11-21T20:50:06.561Z,16.70
2022-11-21T20:55:10.060Z,15.70
2022-11-21T21:00:13.183Z,15.07
2022-11-21T21:05:17.206Z,14.70
2022-11-21T21:10:22.636Z,12.67
2022-11-21T21:15:25.165Z,15.73
2022-11-21T21:20:27.706Z,14.57
2022-11-21T21:25:30.320Z,13.50
2022-11-21T21:30:33.114Z,14.07
2022-11-21T21:35:37.056Z,15.13
2022-11-21T21:40:39.650Z,14.93
2022-11-21T21:45:42.311Z,13.30
2022-11-21T21:50:44.832Z,14.13
2022-11-21T21:55:47.609Z,13.50
2022-11-21T22:00:50.185Z,14.47
2022-11-21T22:05:52.700Z,14.47
2022-11-21T22:11:10.800Z,15.10
2022-11-21T22:16:14.662Z,14.97
2022-11-21T22:21:28.012Z,14.83
2022-11-21T22:26:31.525Z,13.97
2022-11-21T22:31:34.503Z,13.73
2022-11-21T22:36:37.049Z,14.83
2022-11-21T22:41:39.669Z,15.17
2022-11-21T22:46:42.366Z,15.10
2022-11-21T22:51:45.231Z,15.77
2022-11-21T22:56:47.832Z,16.17
2022-11-21T23:01:50.459Z,15.60
2022-11-21T23:06:53.124Z,15.03
2022-11-21T23:11:55.644Z,15.60
2022-11-21T23:16:58.202Z,15.80
2022-11-21T23:22:00.843Z,15.90
2022-11-21T23:27:04.257Z,15.50
2022-11-21T23:32:06.894Z,16.07
2022-11-21T23:37:09.434Z,15.90
2022-11-21T23:42:11.981Z,16.20
2022-11-21T23:47:14.699Z,15.47
2022-11-21T23:52:17.370Z,16.40
2022-11-21T23:57:19.936Z,14.93
